createdAt,value
2023-04-18T00:01:52.617Z,11.43
2023-04-18T00:03:55.923Z,8.73
2023-04-18T00:05:59.399Z,11.20
2023-04-18T00:08:02.160Z,9.80
2023-04-18T00:10:07.649Z,9.43
2023-04-18T00:12:11.044Z,10.00
2023-04-18T00:14:14.486Z,10.90
2023-04-18T00:16:17.617Z,12.33
2023-04-18T00:18:20.384Z,12.00
2023-04-18T00:20:25.989Z,9.30
2023-04-18T00:22:28.737Z,8.43
2023-04-18T00:24:31.520Z,10.80
2023-04-18T00:26:35.732Z,12.77
2023-04-18T00:28:38.514Z,10.17
2023-04-18T00:30:41.318Z,15.13
2023-04-18T00:32:44.112Z,10.13
2023-04-18T00:34:46.900Z,11.03
2023-04-18T00:36:49.649Z,10.67
2023-04-18T00:38:52.386Z,13.63
2023-04-18T00:40:55.139Z,11.67
2023-04-18T00:42:59.223Z,11.10
2023-04-18T00:45:02.181Z,11.40
2023-04-18T00:47:04.932Z,15.90
2023-04-18T00:49:07.723Z,15.10
2023-04-18T00:51:10.500Z,9.33
2023-04-18T00:53:13.291Z,21.13
2023-04-18T00:55:16.078Z,12.60
2023-04-18T00:57:18.908Z,10.70
2023-04-18T00:59:23.194Z,9.90
2023-04-18T01:01:26.029Z,12.30
2023-04-18T01:03:28.948Z,11.47
2023-04-18T01:05:31.894Z,10.07
2023-04-18T01:07:34.784Z,12.67
2023-04-18T01:09:37.557Z,11.60
2023-04-18T01:11:40.382Z,10.37
2023-04-18T01:13:43.146Z,11.73
2023-04-18T01:15:48.087Z,12.30
2023-04-18T01:17:52.307Z,12.00
2023-04-18T01:19:56.616Z,12.50
2023-04-18T01:21:59.379Z,10.57
2023-04-18T01:24:09.045Z,11.30
2023-04-18T01:26:11.807Z,14.77
2023-04-18T01:28:15.145Z,10.43
2023-04-18T01:30:17.944Z,15.30
2023-04-18T01:32:21.044Z,11.97
2023-04-18T01:34:23.920Z,13.90
2023-04-18T01:36:27.183Z,13.83
2023-04-18T01:38:30.222Z,16.40
2023-04-18T01:40:34.325Z,14.63
2023-04-18T01:42:37.086Z,14.60
2023-04-18T01:44:39.835Z,14.53
2023-04-18T01:46:42.652Z,15.07
2023-04-18T01:48:45.443Z,15.70
2023-04-18T01:50:48.228Z,14.17
2023-04-18T01:52:50.991Z,17.13
2023-04-18T01:54:53.755Z,16.10
2023-04-18T01:56:57.868Z,15.13
2023-04-18T01:59:00.644Z,14.30
2023-04-18T02:01:04.095Z,17.30
2023-04-18T02:03:06.983Z,16.07
2023-04-18T02:05:10.412Z,19.70
2023-04-18T02:07:13.163Z,15.00
2023-04-18T02:09:16.186Z,18.07
2023-04-18T02:11:18.958Z,20.70
2023-04-18T02:13:23.045Z,16.83
2023-04-18T02:15:26.018Z,15.57
2023-04-18T02:17:29.268Z,18.13
2023-04-18T02:19:32.076Z,17.17
2023-04-18T02:21:34.849Z,15.17
2023-04-18T02:23:37.621Z,17.57
2023-04-18T02:25:40.401Z,19.43
2023-04-18T02:27:43.155Z,14.03
2023-04-18T02:29:47.252Z,22.07
2023-04-18T02:31:50.012Z,21.07
2023-04-18T02:33:52.794Z,21.90
2023-04-18T02:35:55.535Z,12.60
2023-04-18T02:37:58.281Z,18.10
2023-04-18T02:40:01.025Z,18.23
2023-04-18T02:42:03.833Z,20.63
2023-04-18T02:44:07.468Z,17.60
2023-04-18T02:46:11.589Z,21.33
2023-04-18T02:48:14.445Z,16.80
2023-04-18T02:50:17.432Z,19.40
2023-04-18T02:52:20.177Z,20.00
2023-04-18T02:54:23.178Z,19.30
2023-04-18T02:56:25.942Z,21.10
2023-04-18T02:58:28.728Z,19.40
2023-04-18T03:00:31.593Z,20.97
2023-04-18T03:02:35.791Z,21.33
2023-04-18T03:04:38.667Z,20.20
2023-04-18T03:06:41.713Z,22.87
2023-04-18T03:08:44.478Z,22.47
2023-04-18T03:10:47.223Z,19.33
2023-04-18T03:12:49.979Z,21.53
2023-04-18T03:14:52.843Z,17.30
2023-04-18T03:16:56.016Z,23.10
2023-04-18T03:19:00.119Z,21.77
2023-04-18T03:21:02.898Z,24.13
2023-04-18T03:23:05.646Z,23.43
2023-04-18T03:25:09.392Z,21.50
2023-04-18T03:27:12.243Z,20.43
2023-04-18T03:29:15.021Z,22.47
2023-04-18T03:31:17.876Z,20.37
2023-04-18T03:33:20.651Z,21.13
2023-04-18T03:35:24.775Z,21.77
2023-04-18T03:37:27.518Z,20.07
2023-04-18T03:39:30.271Z,19.33
2023-04-18T03:41:33.039Z,20.00
2023-04-18T03:43:35.817Z,20.33
2023-04-18T03:45:38.578Z,18.90
2023-04-18T03:47:41.441Z,25.00
2023-04-18T03:49:44.252Z,25.80
2023-04-18T03:51:48.595Z,25.37
2023-04-18T03:53:51.355Z,20.93
2023-04-18T03:55:54.142Z,21.03
2023-04-18T03:57:58.410Z,21.67
2023-04-18T04:00:01.156Z,22.20
2023-04-18T04:02:04.038Z,24.53
2023-04-18T04:04:06.994Z,24.47
2023-04-18T04:06:09.887Z,23.07
2023-04-18T04:08:14.800Z,20.20
2023-04-18T04:10:17.568Z,22.30
2023-04-18T04:12:20.364Z,21.13
2023-04-18T04:14:24.538Z,22.03
2023-04-18T04:16:28.299Z,22.00
2023-04-18T04:18:31.373Z,22.30
2023-04-18T04:20:34.250Z,28.07
2023-04-18T04:22:37.734Z,34.30
2023-04-18T04:24:42.063Z,30.83
2023-04-18T04:26:44.910Z,24.00
2023-04-18T04:28:48.573Z,27.17
2023-04-18T04:30:51.598Z,20.77
2023-04-18T04:32:55.118Z,21.60
2023-04-18T04:34:57.923Z,25.53
2023-04-18T04:37:01.125Z,22.53
2023-04-18T04:39:05.245Z,19.27
2023-04-18T04:41:09.384Z,23.17
2023-04-18T04:43:12.750Z,24.47
2023-04-18T04:45:16.116Z,23.70
2023-04-18T04:47:18.907Z,21.40
2023-04-18T04:49:21.987Z,22.17
2023-04-18T04:51:24.852Z,26.23
2023-04-18T04:53:30.204Z,24.57
2023-04-18T04:55:33.387Z,20.73
2023-04-18T04:57:37.920Z,21.73
2023-04-18T04:59:40.738Z,20.40
2023-04-18T05:01:43.665Z,18.87
2023-04-18T05:03:46.795Z,21.40
2023-04-18T05:05:49.806Z,23.07
2023-04-18T05:07:52.561Z,23.90
2023-04-18T05:09:55.331Z,21.30
2023-04-18T05:11:58.238Z,26.00
2023-04-18T05:14:02.697Z,25.73
2023-04-18T05:16:05.905Z,30.60
2023-04-18T05:18:08.801Z,31.67
2023-04-18T05:20:12.242Z,25.67
2023-04-18T05:22:15.048Z,20.17
2023-04-18T05:24:17.804Z,22.37
2023-04-18T05:26:20.797Z,21.27
2023-04-18T05:28:24.802Z,22.00
2023-04-18T05:30:28.920Z,19.57
2023-04-18T05:32:31.680Z,22.30
2023-04-18T05:34:38.013Z,26.97
2023-04-18T05:36:41.613Z,22.03
2023-04-18T05:38:44.395Z,20.47
2023-04-18T05:40:47.223Z,29.00
2023-04-18T05:42:49.978Z,20.10
2023-04-18T05:44:52.734Z,21.67
2023-04-18T05:46:57.133Z,26.90
2023-04-18T05:48:59.908Z,22.10
2023-04-18T05:51:02.693Z,23.57
2023-04-18T05:53:05.453Z,23.23
2023-04-18T05:55:08.743Z,19.17
2023-04-18T05:57:11.507Z,24.90
2023-04-18T05:59:14.611Z,26.83
2023-04-18T06:01:18.565Z,22.70
2023-04-18T06:03:22.986Z,22.23
2023-04-18T06:05:26.285Z,26.80
2023-04-18T06:07:29.331Z,20.97
2023-04-18T06:09:32.097Z,21.60
2023-04-18T06:11:35.694Z,30.83
2023-04-18T06:13:38.549Z,26.50
2023-04-18T06:15:41.373Z,27.87
2023-04-18T06:17:44.613Z,21.97
2023-04-18T06:19:48.780Z,25.00
2023-04-18T06:21:51.580Z,24.37
2023-04-18T06:23:54.343Z,24.27
2023-04-18T06:25:57.385Z,25.53
2023-04-18T06:28:00.267Z,21.30
2023-04-18T06:30:03.074Z,24.40
2023-04-18T06:32:06.994Z,23.10
2023-04-18T06:34:09.754Z,23.30
2023-04-18T06:36:13.905Z,24.50
2023-04-18T06:38:16.711Z,29.43
2023-04-18T06:40:19.635Z,22.63
2023-04-18T06:42:22.822Z,25.33
2023-04-18T06:44:25.850Z,19.33
2023-04-18T06:46:28.741Z,24.53
2023-04-18T06:48:31.673Z,18.33
2023-04-18T06:50:34.543Z,24.40
2023-04-18T06:52:42.506Z,21.07
2023-04-18T06:54:45.271Z,23.17
2023-04-18T06:56:48.076Z,22.80
2023-04-18T06:58:52.761Z,20.17
2023-04-18T07:00:55.723Z,21.43
2023-04-18T07:02:59.064Z,21.73
2023-04-18T07:05:01.909Z,20.17
2023-04-18T07:07:05.248Z,23.80
2023-04-18T07:09:09.358Z,20.13
2023-04-18T07:11:13.198Z,23.00
2023-04-18T07:13:15.990Z,24.77
2023-04-18T07:15:18.911Z,21.30
2023-04-18T07:17:21.777Z,21.77
2023-04-18T07:19:24.626Z,20.83
2023-04-18T07:21:27.460Z,22.23
2023-04-18T07:23:30.227Z,20.70
2023-04-18T07:25:34.354Z,30.03
2023-04-18T07:27:37.420Z,19.00
2023-04-18T07:29:40.278Z,20.90
2023-04-18T07:31:43.113Z,20.27
2023-04-18T07:33:45.892Z,21.90
2023-04-18T07:35:49.932Z,21.13
2023-04-18T07:37:53.906Z,22.20
2023-04-18T07:39:56.690Z,25.13
2023-04-18T07:42:00.831Z,20.73
2023-04-18T07:44:03.745Z,21.17
2023-04-18T07:46:06.843Z,20.90
2023-04-18T07:48:09.704Z,26.70
2023-04-18T07:50:12.718Z,24.60
2023-04-18T07:52:15.519Z,22.43
2023-04-18T07:54:18.326Z,21.10
2023-04-18T07:56:21.614Z,23.37
2023-04-18T07:58:25.717Z,20.83
2023-04-18T08:00:28.751Z,19.30
2023-04-18T08:02:31.707Z,20.70
2023-04-18T08:04:34.867Z,20.67
2023-04-18T08:06:37.845Z,18.93
2023-04-18T08:08:40.639Z,21.93
2023-04-18T08:10:43.415Z,22.87
2023-04-18T08:12:46.330Z,22.60
2023-04-18T08:14:50.503Z,22.70
2023-04-18T08:16:53.301Z,20.27
2023-04-18T08:18:56.079Z,21.30
2023-04-18T08:20:58.882Z,17.33
2023-04-18T08:23:08.447Z,19.70
2023-04-18T08:25:12.507Z,20.67
2023-04-18T08:27:15.384Z,25.13
2023-04-18T08:29:18.198Z,20.57
2023-04-18T08:31:22.422Z,19.37
2023-04-18T08:33:25.266Z,16.30
2023-04-18T08:35:28.027Z,16.70
2023-04-18T08:37:31.596Z,17.90
2023-04-18T08:39:35.128Z,16.67
2023-04-18T08:41:38.275Z,20.30
2023-04-18T08:43:41.040Z,16.77
2023-04-18T08:45:43.913Z,21.10
2023-04-18T08:47:48.215Z,19.40
2023-04-18T08:49:52.220Z,18.50
2023-04-18T08:51:57.488Z,19.40
2023-04-18T08:54:04.596Z,17.30
2023-04-18T08:56:10.620Z,18.87
2023-04-18T08:58:13.855Z,19.33
2023-04-18T09:00:18.788Z,20.90
2023-04-18T09:02:23.319Z,16.67
2023-04-18T09:04:38.530Z,14.53
2023-04-18T09:06:47.072Z,18.93
2023-04-18T09:08:57.378Z,15.87
2023-04-18T09:11:04.918Z,14.43
2023-04-18T09:13:09.995Z,14.97
2023-04-18T09:15:14.395Z,16.27
2023-04-18T09:17:31.574Z,14.00
2023-04-18T09:19:34.421Z,14.77
2023-04-18T09:21:40.174Z,12.90
2023-04-18T09:23:42.939Z,13.93
2023-04-18T09:25:46.868Z,13.87
2023-04-18T09:27:49.831Z,16.50
2023-04-18T09:29:55.819Z,14.60
2023-04-18T09:32:01.213Z,16.17
2023-04-18T09:34:05.118Z,14.00
2023-04-18T09:36:18.062Z,13.20
2023-04-18T09:38:22.195Z,13.83
2023-04-18T09:40:24.978Z,16.23
2023-04-18T09:42:28.874Z,13.73
2023-04-18T09:44:31.866Z,12.80
2023-04-18T09:46:34.767Z,12.67
2023-04-18T09:48:37.654Z,13.10
2023-04-18T09:50:40.441Z,14.40
2023-04-18T09:52:43.887Z,14.93
2023-04-18T09:54:48.365Z,14.23
2023-04-18T09:56:53.452Z,17.13
2023-04-18T09:58:57.833Z,14.10
2023-04-18T10:01:00.749Z,19.47
2023-04-18T10:03:08.157Z,18.30
2023-04-18T10:05:11.281Z,19.53
2023-04-18T10:07:14.287Z,16.40
2023-04-18T10:09:17.141Z,12.30
2023-04-18T10:11:21.871Z,12.40
2023-04-18T10:13:24.879Z,17.63
2023-04-18T10:15:28.746Z,12.77
2023-04-18T10:17:37.024Z,12.90
2023-04-18T10:19:41.931Z,11.90
2023-04-18T10:21:52.452Z,13.97
2023-04-18T10:23:55.220Z,11.53
2023-04-18T10:25:58.057Z,10.47
2023-04-18T10:28:02.490Z,11.60
2023-04-18T10:30:07.344Z,12.40
2023-04-18T10:32:11.565Z,12.47
2023-04-18T10:34:17.473Z,11.07
2023-04-18T10:36:21.410Z,11.87
2023-04-18T10:38:24.277Z,14.00
2023-04-18T10:40:33.268Z,14.60
2023-04-18T10:43:00.114Z,12.97
2023-04-18T10:45:28.561Z,12.50
2023-04-18T10:47:31.604Z,13.23
2023-04-18T10:49:34.490Z,14.00
2023-04-18T10:51:37.273Z,11.80
2023-04-18T10:53:40.068Z,18.80
2023-04-18T10:55:42.843Z,16.33
2023-04-18T10:57:46.455Z,10.43
2023-04-18T10:59:50.208Z,11.37
2023-04-18T11:01:57.000Z,11.90
2023-04-18T11:04:00.152Z,10.73
2023-04-18T11:06:03.433Z,12.37
2023-04-18T11:08:06.748Z,12.30
2023-04-18T11:10:10.444Z,12.23
2023-04-18T11:12:13.236Z,17.37
2023-04-18T11:14:16.218Z,11.93
2023-04-18T11:16:27.274Z,12.00
2023-04-18T11:18:42.064Z,11.87
2023-04-18T11:20:48.056Z,9.63
2023-04-18T11:22:51.621Z,10.70
2023-04-18T11:24:58.960Z,11.60
2023-04-18T11:27:01.780Z,11.50
2023-04-18T11:29:07.067Z,13.50
2023-04-18T11:31:09.903Z,11.90
2023-04-18T11:33:13.182Z,8.67
2023-04-18T11:35:17.356Z,15.53
2023-04-18T11:37:20.167Z,11.87
2023-04-18T11:39:23.117Z,11.10
2023-04-18T11:41:25.898Z,11.27
2023-04-18T11:43:28.713Z,9.17
2023-04-18T11:45:31.709Z,8.67
2023-04-18T11:47:35.088Z,10.23
2023-04-18T11:49:37.869Z,10.80
2023-04-18T11:51:46.198Z,8.63
2023-04-18T11:53:49.009Z,8.23
2023-04-18T11:55:55.765Z,9.43
2023-04-18T11:57:58.960Z,11.17
2023-04-18T12:00:01.985Z,9.97
2023-04-18T12:02:16.324Z,9.40
2023-04-18T12:04:20.115Z,9.40
2023-04-18T12:06:23.466Z,9.17
2023-04-18T12:08:27.797Z,8.90
2023-04-18T12:10:30.883Z,15.87
2023-04-18T12:12:33.690Z,8.13
2023-04-18T12:14:36.840Z,12.73
2023-04-18T12:16:39.664Z,9.70
2023-04-18T12:18:42.644Z,10.47
2023-04-18T12:20:50.121Z,10.17
2023-04-18T12:22:55.025Z,8.40
2023-04-18T12:25:13.955Z,10.20
2023-04-18T12:27:16.734Z,9.30
2023-04-18T12:29:19.565Z,10.60
2023-04-18T12:31:22.595Z,12.03
2023-04-18T12:33:25.415Z,11.73
2023-04-18T12:35:28.650Z,20.17
2023-04-18T12:37:31.436Z,11.17
2023-04-18T12:39:34.315Z,12.10
2023-04-18T12:41:38.480Z,11.90
2023-04-18T12:43:41.283Z,10.63
2023-04-18T12:45:46.064Z,10.60
2023-04-18T12:47:49.467Z,9.33
2023-04-18T12:49:52.276Z,11.90
2023-04-18T12:51:55.050Z,16.20
2023-04-18T12:53:57.793Z,10.87
2023-04-18T12:56:00.569Z,13.70
2023-04-18T12:58:04.828Z,11.13
2023-04-18T13:00:10.344Z,12.17
2023-04-18T13:02:13.232Z,10.27
2023-04-18T13:04:16.694Z,12.20
2023-04-18T13:06:19.629Z,14.07
2023-04-18T13:08:22.892Z,17.17
2023-04-18T13:10:26.767Z,16.00
2023-04-18T13:12:30.570Z,10.40
2023-04-18T13:14:34.684Z,9.87
2023-04-18T13:16:37.470Z,11.73
2023-04-18T13:18:40.265Z,9.90
2023-04-18T13:20:43.983Z,9.20
2023-04-18T13:22:46.782Z,14.80
2023-04-18T13:24:49.592Z,9.77
2023-04-18T13:26:52.383Z,11.03
2023-04-18T13:28:55.154Z,10.00
2023-04-18T13:30:59.717Z,8.97
2023-04-18T13:33:02.559Z,10.90
2023-04-18T13:35:08.134Z,7.97
2023-04-18T13:37:11.019Z,11.03
2023-04-18T13:39:15.220Z,10.10
2023-04-18T13:41:18.128Z,8.50
2023-04-18T13:43:20.969Z,9.70
2023-04-18T13:45:23.727Z,8.63
2023-04-18T13:47:27.930Z,10.30
2023-04-18T13:49:30.885Z,8.23
2023-04-18T13:51:33.929Z,9.47
2023-04-18T13:53:36.771Z,10.17
2023-04-18T13:55:39.571Z,9.57
2023-04-18T13:57:42.336Z,9.57
2023-04-18T13:59:45.112Z,14.43
2023-04-18T14:01:49.156Z,11.13
2023-04-18T14:03:54.602Z,9.70
2023-04-18T14:05:59.285Z,17.83
2023-04-18T14:08:03.970Z,9.90
2023-04-18T14:10:07.702Z,9.63
2023-04-18T14:12:10.591Z,12.33
2023-04-18T14:14:13.392Z,15.17
2023-04-18T14:16:16.331Z,12.30
2023-04-18T14:18:21.718Z,12.80
2023-04-18T14:20:26.556Z,11.73
2023-04-18T14:22:29.731Z,12.60
2023-04-18T14:24:32.501Z,12.17
2023-04-18T14:26:35.652Z,9.50
2023-04-18T14:28:38.439Z,13.10
2023-04-18T14:30:41.299Z,10.40
2023-04-18T14:32:44.173Z,17.10
2023-04-18T14:34:47.120Z,11.00
2023-04-18T14:36:51.280Z,11.57
2023-04-18T14:38:54.659Z,10.50
2023-04-18T14:40:58.700Z,11.07
2023-04-18T14:43:01.539Z,12.20
2023-04-18T14:45:05.147Z,11.43
2023-04-18T14:47:07.989Z,12.53
2023-04-18T14:49:10.842Z,9.27
2023-04-18T14:51:13.631Z,15.40
2023-04-18T14:53:17.713Z,9.37
2023-04-18T14:55:20.492Z,9.60
2023-04-18T14:57:23.276Z,10.90
2023-04-18T14:59:27.908Z,13.10
2023-04-18T15:01:30.763Z,10.63
2023-04-18T15:03:34.073Z,9.80
2023-04-18T15:05:42.680Z,10.70
2023-04-18T15:07:45.467Z,13.13
2023-04-18T15:09:49.578Z,13.73
2023-04-18T15:11:52.527Z,11.70
2023-04-18T15:13:55.303Z,13.20
2023-04-18T15:15:58.149Z,11.07
2023-04-18T15:18:00.957Z,11.43
2023-04-18T15:20:06.988Z,18.90
2023-04-18T15:22:10.783Z,11.00
2023-04-18T15:24:14.031Z,9.70
2023-04-18T15:26:18.498Z,13.53
2023-04-18T15:28:21.277Z,10.80
2023-04-18T15:30:24.242Z,15.40
2023-04-18T15:32:27.169Z,13.90
2023-04-18T15:34:29.983Z,9.17
2023-04-18T15:36:32.890Z,9.70
2023-04-18T15:38:35.675Z,15.57
2023-04-18T15:40:39.114Z,10.07
2023-04-18T15:42:43.598Z,11.73
2023-04-18T15:44:46.354Z,11.23
2023-04-18T15:46:49.389Z,8.80
2023-04-18T15:48:52.242Z,15.00
2023-04-18T15:50:55.111Z,12.10
2023-04-18T15:52:57.991Z,14.93
2023-04-18T15:55:01.316Z,12.83
2023-04-18T15:57:04.280Z,9.67
2023-04-18T15:59:10.883Z,14.10
2023-04-18T16:01:15.947Z,11.73
2023-04-18T16:03:18.979Z,13.97
2023-04-18T16:05:21.854Z,11.20
2023-04-18T16:07:24.707Z,10.23
2023-04-18T16:09:27.486Z,15.20
2023-04-18T16:11:30.303Z,12.40
2023-04-18T16:13:33.098Z,17.63
2023-04-18T16:15:41.422Z,11.87
2023-04-18T16:17:44.325Z,16.50
2023-04-18T16:19:47.157Z,14.10
2023-04-18T16:21:49.963Z,11.60
2023-04-18T16:23:53.079Z,15.63
2023-04-18T16:25:55.970Z,14.97
2023-04-18T16:27:58.747Z,13.20
2023-04-18T16:30:01.548Z,15.17
2023-04-18T16:32:08.049Z,19.10
2023-04-18T16:34:10.850Z,12.93
2023-04-18T16:36:13.655Z,16.77
2023-04-18T16:38:16.444Z,13.90
2023-04-18T16:40:19.218Z,18.03
2023-04-18T16:42:21.998Z,16.33
2023-04-18T16:44:24.827Z,13.27
2023-04-18T16:46:31.305Z,14.80
2023-04-18T16:48:37.742Z,17.17
2023-04-18T16:50:40.678Z,13.30
2023-04-18T16:52:43.420Z,17.33
2023-04-18T16:54:46.168Z,21.87
2023-04-18T16:56:48.956Z,31.60
2023-04-18T16:58:51.718Z,25.47
2023-04-18T17:00:54.498Z,30.57
2023-04-18T17:02:58.215Z,20.77
2023-04-18T17:05:02.389Z,23.80
2023-04-18T17:07:05.462Z,29.67
2023-04-18T17:09:08.778Z,26.30
2023-04-18T17:11:11.555Z,22.50
2023-04-18T17:13:14.300Z,18.60
2023-04-18T17:15:18.616Z,21.17
2023-04-18T17:17:21.391Z,15.87
2023-04-18T17:19:24.426Z,23.83
2023-04-18T17:21:28.546Z,39.33
2023-04-18T17:23:32.876Z,18.23
2023-04-18T17:25:36.580Z,20.73
2023-04-18T17:27:42.829Z,20.50
2023-04-18T17:29:45.620Z,29.43
2023-04-18T17:31:48.491Z,51.00
2023-04-18T17:33:51.503Z,40.53
2023-04-18T17:35:54.290Z,25.83
2023-04-18T17:37:58.406Z,22.30
2023-04-18T17:40:05.340Z,22.83
2023-04-18T17:42:08.131Z,36.20
2023-04-18T17:44:11.030Z,19.40
2023-04-18T17:46:14.275Z,25.87
2023-04-18T17:48:17.227Z,22.83
2023-04-18T17:50:20.054Z,19.80
2023-04-18T17:52:22.856Z,23.90
2023-04-18T17:54:26.986Z,29.57
2023-04-18T17:56:30.488Z,22.67
2023-04-18T17:58:33.287Z,20.77
2023-04-18T18:00:36.182Z,25.27
2023-04-18T18:02:40.351Z,23.80
2023-04-18T18:04:43.322Z,25.73
2023-04-18T18:06:54.758Z,27.97
2023-04-18T18:08:57.533Z,27.07
2023-04-18T18:11:02.525Z,53.17
2023-04-18T18:13:05.325Z,41.93
2023-04-18T18:15:11.387Z,27.20
2023-04-18T18:17:14.189Z,38.13
2023-04-18T18:19:17.076Z,20.23
2023-04-18T18:21:19.950Z,35.07
2023-04-18T18:23:22.734Z,30.00
2023-04-18T18:25:25.492Z,20.10
2023-04-18T18:27:29.631Z,19.80
2023-04-18T18:29:32.506Z,30.93
2023-04-18T18:31:35.395Z,26.57
2023-04-18T18:33:38.184Z,18.67
2023-04-18T18:35:40.967Z,20.80
2023-04-18T18:37:43.777Z,20.00
2023-04-18T18:39:46.565Z,21.10
2023-04-18T18:41:49.364Z,18.53
2023-04-18T18:43:53.477Z,23.60
2023-04-18T18:45:56.278Z,17.27
2023-04-18T18:47:59.177Z,16.73
2023-04-18T18:50:01.998Z,15.00
2023-04-18T18:52:05.426Z,17.60
2023-04-18T18:54:08.300Z,26.90
2023-04-18T18:56:11.106Z,19.00
2023-04-18T18:58:13.901Z,16.97
2023-04-18T19:00:18.211Z,16.13
2023-04-18T19:02:21.187Z,16.40
2023-04-18T19:04:24.899Z,15.90
2023-04-18T19:06:27.891Z,17.80
2023-04-18T19:08:31.033Z,20.50
2023-04-18T19:10:33.829Z,15.10
2023-04-18T19:12:36.658Z,18.73
2023-04-18T19:14:40.696Z,16.93
2023-04-18T19:16:46.450Z,14.33
2023-04-18T19:18:50.538Z,15.60
2023-04-18T19:20:53.370Z,18.80
2023-04-18T19:22:56.442Z,23.50
2023-04-18T19:25:00.646Z,16.27
2023-04-18T19:27:03.551Z,16.23
2023-04-18T19:29:07.284Z,16.73
2023-04-18T19:31:10.266Z,20.80
2023-04-18T19:33:14.523Z,17.30
2023-04-18T19:35:17.392Z,17.10
2023-04-18T19:37:20.192Z,18.03
2023-04-18T19:39:22.957Z,16.50
2023-04-18T19:41:25.966Z,16.90
2023-04-18T19:43:28.791Z,19.53
2023-04-18T19:45:31.794Z,15.73
2023-04-18T19:47:34.802Z,16.03
2023-04-18T19:49:38.930Z,19.57
2023-04-18T19:51:41.702Z,16.00
2023-04-18T19:53:44.486Z,16.03
2023-04-18T19:55:47.266Z,16.33
2023-04-18T19:57:54.884Z,15.23
2023-04-18T19:59:57.668Z,13.83
2023-04-18T20:02:04.190Z,12.70
2023-04-18T20:04:08.650Z,9.73
2023-04-18T20:06:12.937Z,15.27
2023-04-18T20:08:15.694Z,10.60
2023-04-18T20:10:22.376Z,10.10
2023-04-18T20:12:25.224Z,10.53
2023-04-18T20:14:28.379Z,11.93
2023-04-18T20:16:31.756Z,19.40
2023-04-18T20:18:35.807Z,17.70
2023-04-18T20:20:38.606Z,9.60
2023-04-18T20:22:44.716Z,9.60
2023-04-18T20:24:48.721Z,9.97
2023-04-18T20:26:51.600Z,15.63
2023-04-18T20:28:54.369Z,11.70
2023-04-18T20:30:57.179Z,12.37
2023-04-18T20:33:00.065Z,13.83
2023-04-18T20:35:04.362Z,9.47
2023-04-18T20:37:09.310Z,11.03
2023-04-18T20:39:13.708Z,9.63
2023-04-18T20:41:18.248Z,12.37
2023-04-18T20:43:21.353Z,11.60
2023-04-18T20:45:24.484Z,6.97
2023-04-18T20:47:27.756Z,10.10
2023-04-18T20:49:30.572Z,11.97
2023-04-18T20:51:34.485Z,10.43
2023-04-18T20:53:37.259Z,9.40
2023-04-18T20:55:41.362Z,12.13
2023-04-18T20:57:44.161Z,5.83
2023-04-18T20:59:47.512Z,9.03
2023-04-18T21:01:50.456Z,8.70
2023-04-18T21:03:53.407Z,7.30
2023-04-18T21:05:56.285Z,8.63
2023-04-18T21:07:59.645Z,8.10
2023-04-18T21:10:02.438Z,8.03
2023-04-18T21:12:07.046Z,9.90
2023-04-18T21:14:09.866Z,7.03
2023-04-18T21:16:12.685Z,8.90
2023-04-18T21:18:15.493Z,9.93
2023-04-18T21:20:18.272Z,5.70
2023-04-18T21:22:21.082Z,6.97
2023-04-18T21:24:23.863Z,9.90
2023-04-18T21:26:26.625Z,6.97
2023-04-18T21:28:30.782Z,6.07
2023-04-18T21:30:33.552Z,6.90
2023-04-18T21:32:36.399Z,9.37
2023-04-18T21:34:39.250Z,6.20
2023-04-18T21:36:42.144Z,6.60
2023-04-18T21:38:44.910Z,6.40
2023-04-18T21:40:47.776Z,6.90
2023-04-18T21:42:50.952Z,10.17
2023-04-18T21:44:55.238Z,8.97
2023-04-18T21:46:58.071Z,8.23
2023-04-18T21:49:00.855Z,9.93
2023-04-18T21:51:03.617Z,7.33
2023-04-18T21:53:06.424Z,7.90
2023-04-18T21:55:10.056Z,6.80
2023-04-18T21:57:12.833Z,16.00
2023-04-18T21:59:15.610Z,7.10
2023-04-18T22:01:19.740Z,9.57
2023-04-18T22:03:22.693Z,8.17
2023-04-18T22:05:26.265Z,7.53
2023-04-18T22:07:29.546Z,7.10
2023-04-18T22:09:33.861Z,11.73
2023-04-18T22:11:36.708Z,14.30
2023-04-18T22:13:39.515Z,7.50
2023-04-18T22:15:42.283Z,9.90
2023-04-18T22:17:47.751Z,21.80
2023-04-18T22:19:50.695Z,8.23
2023-04-18T22:21:53.467Z,7.60
2023-04-18T22:23:56.256Z,15.87
2023-04-18T22:25:59.037Z,8.10
2023-04-18T22:28:02.234Z,10.50
2023-04-18T22:30:05.820Z,8.30
2023-04-18T22:32:08.593Z,13.03
2023-04-18T22:34:12.864Z,10.30
2023-04-18T22:36:15.793Z,8.63
2023-04-18T22:38:18.595Z,8.30
2023-04-18T22:40:21.438Z,8.63
2023-04-18T22:42:24.230Z,10.50
2023-04-18T22:44:27.017Z,8.90
2023-04-18T22:46:29.841Z,13.03
2023-04-18T22:48:35.087Z,9.90
2023-04-18T22:50:42.540Z,10.10
2023-04-18T22:52:45.526Z,17.47
2023-04-18T22:54:48.300Z,9.20
2023-04-18T22:56:51.116Z,11.27
2023-04-18T22:58:53.890Z,13.60
2023-04-18T23:00:56.640Z,10.70
2023-04-18T23:02:59.577Z,9.40
2023-04-18T23:05:02.769Z,8.83
2023-04-18T23:07:06.865Z,10.90
2023-04-18T23:09:09.864Z,11.47
2023-04-18T23:11:12.638Z,10.67
2023-04-18T23:13:15.453Z,11.27
2023-04-18T23:15:18.403Z,14.27
2023-04-18T23:17:22.137Z,12.00
2023-04-18T23:19:24.927Z,16.57
2023-04-18T23:21:28.080Z,9.83
2023-04-18T23:23:32.194Z,15.73
2023-04-18T23:25:34.957Z,10.83
2023-04-18T23:27:37.739Z,12.70
2023-04-18T23:29:40.490Z,9.73
2023-04-18T23:31:43.322Z,14.30
2023-04-18T23:33:46.739Z,9.03
2023-04-18T23:35:49.519Z,9.30
2023-04-18T23:37:52.287Z,12.50
2023-04-18T23:39:56.399Z,9.87
2023-04-18T23:41:59.232Z,12.43
2023-04-18T23:44:02.365Z,14.60
2023-04-18T23:46:05.159Z,9.83
2023-04-18T23:48:07.990Z,15.47
2023-04-18T23:50:12.031Z,12.73
2023-04-18T23:52:14.809Z,11.23
2023-04-18T23:54:17.639Z,11.40
2023-04-18T23:56:23.129Z,10.73
2023-04-18T23:58:26.501Z,7.83
